Time;durP1;ratioP1;P1;durP2;ratioP2;P2;SDS_P1;SDS_P2;PMS_P1;PMS_P2;Temp;Humidity;BMP_temperature;BMP_pressure;BME280_temperature;BME280_humidity;BME280_pressure;Samples;Min_cycle;Max_cycle;Signal;HPM_P1;HPM_P2
2022/07/12 00:00:44;;;;;;;10.48;3.98;;;;;;;11.94;85.47;100713.55;2070872;85;28594;-66
2022/07/12 00:03:52;;;;;;;11.08;5.40;;;;;;;11.89;85.51;100707.56;2070449;85;32287;-67
2022/07/12 00:06:56;;;;;;;9.28;4.25;;;;;;;11.83;85.47;100712.73;2070919;85;32982;-67
2022/07/12 00:10:01;;;;;;;12.75;4.67;;;;;;;11.81;85.53;100715.09;2071042;85;29375;-67
2022/07/12 00:13:11;;;;;;;10.72;4.20;;;;;;;11.77;85.52;100713.05;2071116;85;27782;-67
2022/07/12 00:16:19;;;;;;;10.48;5.05;;;;;;;11.72;85.43;100713.72;2070538;85;29954;-66
2022/07/12 00:19:27;;;;;;;11.85;5.15;;;;;;;11.64;85.55;100704.70;2070358;85;31011;-67
2022/07/12 00:22:40;;;;;;;8.40;4.37;;;;;;;11.65;85.56;100717.17;2068921;85;34263;-66
2022/07/12 00:25:46;;;;;;;14.13;4.90;;;;;;;11.61;85.56;100720.09;2068167;85;28997;-67
2022/07/12 00:28:54;;;;;;;8.73;4.55;;;;;;;11.58;85.60;100726.48;2070523;85;27913;-67
2022/07/12 00:32:02;;;;;;;5.78;3.80;;;;;;;11.55;85.58;100722.59;2070176;85;28691;-70
2022/07/12 00:35:08;;;;;;;8.78;4.33;;;;;;;11.53;85.66;100720.45;2070774;85;31186;-72
2022/07/12 00:38:15;;;;;;;12.15;4.42;;;;;;;11.51;85.70;100717.81;2070178;85;30420;-67
2022/07/12 00:41:24;;;;;;;6.55;3.87;;;;;;;11.47;85.63;100717.59;2071739;85;29312;-78
2022/07/12 00:44:36;;;;;;;6.62;3.72;;;;;;;11.46;85.70;100722.55;2070620;85;27950;-69
2022/07/12 00:47:51;;;;;;;17.10;4.33;;;;;;;11.43;85.60;100724.03;2070388;85;29497;-67
2022/07/12 00:51:00;;;;;;;9.30;3.95;;;;;;;11.37;85.60;100725.64;2071087;85;31057;-66
2022/07/12 00:54:07;;;;;;;5.95;3.75;;;;;;;11.38;85.67;100727.38;2070471;85;33114;-67
2022/07/12 00:57:18;;;;;;;8.35;3.67;;;;;;;11.34;85.65;100732.03;2070175;85;29422;-71
2022/07/12 01:00:33;;;;;;;5.90;3.35;;;;;;;11.32;85.70;100733.05;2070574;85;27898;-69
2022/07/12 01:03:44;;;;;;;11.53;5.67;;;;;;;11.29;85.68;100740.75;2069678;85;28728;-74
2022/07/12 01:06:55;;;;;;;9.68;4.45;;;;;;;11.26;85.66;100742.22;2069456;85;31135;-70
2022/07/12 01:10:03;;;;;;;11.15;4.47;;;;;;;11.23;85.72;100743.24;2066442;85;33032;-67
2022/07/12 01:13:12;;;;;;;8.18;4.05;;;;;;;11.22;85.72;100747.34;2065717;85;29413;-67
2022/07/12 01:16:21;;;;;;;10.50;4.60;;;;;;;11.20;85.67;100745.20;2065780;85;28001;-67
2022/07/12 01:19:30;;;;;;;8.08;4.05;;;;;;;11.17;85.61;100748.02;2069154;85;28654;-78
2022/07/12 01:22:43;;;;;;;8.03;3.85;;;;;;;11.13;85.65;100748.63;2069405;85;31663;-69
2022/07/12 01:25:47;;;;;;;5.40;3.50;;;;;;;11.10;85.67;100748.28;2065933;85;33083;-73
2022/07/12 01:28:51;;;;;;;8.88;3.45;;;;;;;11.06;85.65;100749.83;2071863;85;29343;-69
2022/07/12 01:31:53;;;;;;;4.97;3.42;;;;;;;11.03;85.68;100748.17;2073664;85;27749;-69
2022/07/12 01:35:01;;;;;;;7.75;3.85;;;;;;;11.03;85.79;100749.51;2073550;85;28634;-73
2022/07/12 01:38:09;;;;;;;11.63;4.35;;;;;;;11.00;85.64;100747.44;2067577;85;31303;-69
2022/07/12 01:41:13;;;;;;;5.20;3.42;;;;;;;10.93;85.47;100741.00;2068138;85;32965;-69
2022/07/12 01:44:19;;;;;;;6.45;4.00;;;;;;;10.89;85.48;100747.42;2068396;85;31336;-66
2022/07/12 01:47:30;;;;;;;8.43;4.20;;;;;;;10.85;85.52;100745.81;2068353;85;28009;-66
2022/07/12 01:50:35;;;;;;;7.60;3.70;;;;;;;10.81;85.48;100747.36;2068736;85;28646;-65
2022/07/12 01:53:44;;;;;;;7.10;3.75;;;;;;;10.78;85.57;100739.84;2069709;85;31065;-65
2022/07/12 01:56:56;;;;;;;7.05;4.55;;;;;;;10.75;85.53;100742.69;2068997;85;33431;-66
2022/07/12 02:00:07;;;;;;;7.75;4.12;;;;;;;10.72;85.47;100749.96;2069670;85;29429;-66
2022/07/12 02:03:13;;;;;;;8.98;3.47;;;;;;;10.67;85.50;100754.19;2070627;85;28080;-67
2022/07/12 02:06:20;;;;;;;8.98;3.30;;;;;;;10.64;85.55;100755.20;2070348;85;28754;-67
2022/07/12 02:09:29;;;;;;;3.92;2.72;;;;;;;10.60;85.52;100757.59;2071492;85;31092;-67
2022/07/12 02:12:39;;;;;;;10.05;4.00;;;;;;;10.57;85.47;100756.87;2070452;85;32968;-66
2022/07/12 02:15:49;;;;;;;7.12;3.70;;;;;;;10.54;85.58;100754.31;2067888;85;29402;-68
2022/07/12 02:19:03;;;;;;;6.12;3.08;;;;;;;10.50;85.54;100749.56;2070355;85;28047;-67
2022/07/12 02:22:08;;;;;;;5.60;3.05;;;;;;;10.47;85.57;100756.38;2070903;85;28677;-66
2022/07/12 02:25:13;;;;;;;3.75;3.05;;;;;;;10.43;85.56;100760.97;2070717;85;31012;-67
2022/07/12 02:28:23;;;;;;;7.33;3.67;;;;;;;10.40;85.63;100757.11;2070410;85;33028;-67
2022/07/12 02:31:29;;;;;;;5.58;3.10;;;;;;;10.38;85.71;100758.05;2070530;85;29635;-66
2022/07/12 02:34:33;;;;;;;5.55;3.05;;;;;;;10.35;85.69;100757.72;2071030;85;33886;-67
2022/07/12 02:37:40;;;;;;;6.28;3.50;;;;;;;10.31;85.66;100757.44;2071279;85;28643;-68
2022/07/12 02:40:57;;;;;;;9.38;2.87;;;;;;;10.32;85.84;100756.50;2070623;85;31066;-67
2022/07/12 02:44:04;;;;;;;5.00;3.37;;;;;;;10.29;85.73;100756.17;2070581;85;33013;-67
2022/07/12 02:47:13;;;;;;;12.60;3.22;;;;;;;10.27;85.77;100746.44;2071079;85;29287;-66
2022/07/12 02:50:19;;;;;;;13.00;3.85;;;;;;;10.25;85.79;100753.21;2070659;85;27968;-67
2022/07/12 02:53:24;;;;;;;7.08;3.77;;;;;;;10.24;85.82;100754.63;2070917;85;28733;-67
2022/07/12 02:56:32;;;;;;;5.95;3.60;;;;;;;10.23;85.80;100752.40;2071011;85;33200;-67
2022/07/12 02:59:44;;;;;;;7.55;3.58;;;;;;;10.22;85.68;100752.47;2070563;85;33473;-67
2022/07/12 03:02:52;;;;;;;6.10;3.42;;;;;;;10.18;85.70;100757.95;2070526;85;29566;-66
2022/07/12 03:05:58;;;;;;;11.03;4.33;;;;;;;10.17;85.72;100758.87;2071189;85;27918;-67
2022/07/12 03:09:03;;;;;;;7.87;3.67;;;;;;;10.18;85.83;100761.08;2070931;85;28689;-66
2022/07/12 03:12:12;;;;;;;9.73;4.10;;;;;;;10.18;85.83;100761.08;2070709;85;32291;-67
2022/07/12 03:15:19;;;;;;;8.18;3.72;;;;;;;10.18;85.89;100762.41;2070595;85;33024;-67
2022/07/12 03:18:28;;;;;;;6.62;3.98;;;;;;;10.19;85.91;100761.03;2068846;85;29456;-67
2022/07/12 03:21:39;;;;;;;11.65;4.03;;;;;;;10.22;86.05;100764.52;2055691;86;28050;-67
2022/07/12 03:24:48;;;;;;;7.80;3.30;;;;;;;10.26;86.06;100766.15;2055530;86;29387;-67
2022/07/12 03:27:59;;;;;;;9.13;4.00;;;;;;;10.28;86.05;100758.45;2056006;86;30963;-67
2022/07/12 03:31:05;;;;;;;6.90;3.75;;;;;;;10.31;86.04;100761.00;2055573;86;29599;-67
2022/07/12 03:34:13;;;;;;;6.42;3.37;;;;;;;10.34;86.10;100760.85;2055995;86;29338;-66
2022/07/12 03:37:22;;;;;;;9.88;4.70;;;;;;;10.40;86.21;100770.95;2055737;86;28004;-67
2022/07/12 03:40:28;;;;;;;8.95;4.35;;;;;;;10.44;86.17;100781.47;2055925;86;28665;-66
2022/07/12 03:43:39;;;;;;;10.15;4.37;;;;;;;10.49;86.20;100781.30;2055596;86;27936;-67
2022/07/12 03:46:47;;;;;;;12.10;4.92;;;;;;;10.53;86.21;100778.88;2055745;86;29423;-67
2022/07/12 03:49:57;;;;;;;10.53;4.95;;;;;;;10.59;86.23;100788.48;2056054;86;29323;-66
2022/07/12 03:53:07;;;;;;;8.35;5.20;;;;;;;10.67;86.37;100789.50;2055687;86;27900;-66
2022/07/12 03:59:46;;;;;;;11.00;5.15;;;;;;;10.99;86.93;100775.19;2055583;86;31180;-68
2022/07/12 04:02:54;;;;;;;9.53;5.50;;;;;;;11.18;86.97;100774.75;2053990;86;32973;-67
2022/07/12 04:06:06;;;;;;;9.55;5.10;;;;;;;11.36;87.07;100773.07;2054072;86;29989;-68
2022/07/12 04:09:14;;;;;;;11.20;5.08;;;;;;;11.53;87.04;100777.65;2055952;86;27973;-67
2022/07/12 04:12:26;;;;;;;5.87;5.03;;;;;;;11.67;86.79;100771.66;2055737;86;29411;-67
2022/07/12 04:15:36;;;;;;;12.47;5.45;;;;;;;11.79;86.61;100771.55;2055573;86;31064;-68
2022/07/12 04:18:43;;;;;;;10.43;5.62;;;;;;;11.93;86.57;100773.56;2055757;85;32979;-67
2022/07/12 04:21:49;;;;;;;11.08;5.53;;;;;;;12.05;86.49;100778.00;2054190;86;29369;-67
2022/07/12 04:24:58;;;;;;;9.50;5.67;;;;;;;12.14;86.23;100781.57;2055754;86;27722;-67
2022/07/12 04:28:05;;;;;;;12.78;6.58;;;;;;;12.23;86.08;100782.48;2055500;86;28694;-67
2022/07/12 04:31:11;;;;;;;7.33;5.60;;;;;;;12.40;86.53;100782.13;2055757;86;31138;-67
2022/07/12 04:34:23;;;;;;;7.45;6.25;;;;;;;12.57;86.51;100782.16;2055841;86;33147;-67
2022/07/12 04:37:31;;;;;;;16.55;5.78;;;;;;;12.75;86.38;100771.39;2055374;86;28034;-67
2022/07/12 04:40:38;;;;;;;8.85;5.45;;;;;;;12.94;85.95;100773.13;2055324;86;27889;-67
2022/07/12 04:43:47;;;;;;;12.75;5.97;;;;;;;13.10;86.18;100773.21;2055523;86;28733;-66
2022/07/12 04:46:56;;;;;;;11.83;4.87;;;;;;;13.29;86.27;100770.41;2055230;86;31027;-68
2022/07/12 04:50:08;;;;;;;9.38;4.97;;;;;;;13.47;86.18;100776.17;2053493;86;33747;-67
2022/07/12 04:53:16;;;;;;;6.03;3.87;;;;;;;13.62;85.87;100768.22;2053879;86;29389;-67
2022/07/12 04:56:30;;;;;;;7.25;4.12;;;;;;;13.76;85.85;100772.36;2055575;86;28008;-66
2022/07/12 04:59:38;;;;;;;8.33;3.58;;;;;;;13.86;85.27;100771.86;2055789;86;28702;-67
2022/07/12 05:02:48;;;;;;;5.55;3.92;;;;;;;13.99;85.20;100767.52;2055900;86;31104;-67
2022/07/12 05:06:00;;;;;;;11.03;4.22;;;;;;;14.07;84.94;100768.42;2055469;86;33888;-66
2022/07/12 05:09:06;;;;;;;5.25;3.40;;;;;;;14.18;85.17;100767.33;2056365;86;29406;-67
2022/07/12 05:12:08;;;;;;;5.15;3.67;;;;;;;14.28;84.98;100764.97;2055922;86;27744;-72
2022/07/12 05:15:18;;;;;;;7.28;3.90;;;;;;;14.35;84.73;100773.11;2055579;86;28639;-71
2022/07/12 05:18:30;;;;;;;12.60;4.30;;;;;;;14.39;84.71;100765.70;2055261;86;28024;-66
2022/07/12 05:21:41;;;;;;;7.12;4.10;;;;;;;14.47;84.61;100767.95;2072631;85;33007;-69
2022/07/12 05:24:50;;;;;;;8.03;3.50;;;;;;;14.50;84.52;100757.84;2073902;85;29417;-67
2022/07/12 05:28:02;;;;;;;4.62;3.15;;;;;;;14.62;84.15;100763.49;2073993;85;28049;-70
2022/07/12 05:31:12;;;;;;;29.55;6.45;;;;;;;14.62;84.15;100763.49;2074147;85;28680;-67
2022/07/12 05:34:22;;;;;;;54.13;10.25;;;;;;;14.71;84.20;100761.16;2074030;85;31224;-67
2022/07/12 05:37:31;;;;;;;37.23;7.45;;;;;;;14.77;83.80;100761.27;2074378;85;33018;-66
2022/07/12 05:40:38;;;;;;;45.23;8.80;;;;;;;14.84;83.79;100765.80;2074450;85;29339;-67
2022/07/12 05:43:44;;;;;;;33.90;6.47;;;;;;;15.07;83.62;100758.13;2074325;85;27996;-67
2022/07/12 05:46:53;;;;;;;20.20;4.58;;;;;;;15.25;83.65;100754.80;2073990;85;28669;-66
2022/07/12 05:50:06;;;;;;;6.67;3.20;;;;;;;15.25;83.65;100754.80;2073934;85;32263;-69
2022/07/12 05:53:23;;;;;;;7.40;3.55;;;;;;;15.53;83.84;100751.70;2074025;85;33428;-67
2022/07/12 05:56:40;;;;;;;9.88;3.42;;;;;;;15.84;83.43;100744.33;2074616;85;29346;-67
2022/07/12 06:00:37;;;;;;;10.08;3.05;;;;;;;16.14;83.45;100747.38;2073220;85;27944;-67
2022/07/12 06:04:07;;;;;;;10.95;3.10;;;;;;;16.31;82.34;100724.14;2067777;85;27927;-68
2022/07/12 06:07:19;;;;;;;4.75;2.67;;;;;;;16.72;82.40;100749.35;2072072;85;27909;-67
2022/07/12 06:10:26;;;;;;;5.22;2.83;;;;;;;17.02;81.71;100745.55;2074024;85;33205;-67
2022/07/12 06:13:36;;;;;;;6.15;2.75;;;;;;;17.79;82.28;100753.23;2074315;85;29316;-69
2022/07/12 06:16:43;;;;;;;6.92;2.40;;;;;;;18.96;81.92;100747.69;2048579;85;27984;-70
2022/07/12 06:19:51;;;;;;;5.10;2.33;;;;;;;20.19;81.02;100745.61;2070831;85;28002;-66
2022/07/12 06:22:59;;;;;;;4.03;1.85;;;;;;;21.36;78.86;100743.44;2036806;86;31086;-66
2022/07/12 06:26:06;;;;;;;6.47;2.00;;;;;;;22.40;77.22;100736.38;2059812;86;33166;-68
2022/07/12 06:29:15;;;;;;;5.97;1.82;;;;;;;23.34;75.93;100731.24;2059776;85;29339;-69
2022/07/12 06:32:23;;;;;;;2.30;1.40;;;;;;;24.24;73.52;100728.78;2059874;86;27964;-66
2022/07/12 06:35:35;;;;;;;4.97;1.90;;;;;;;25.06;72.56;100722.83;2059534;86;29604;-67
2022/07/12 06:38:43;;;;;;;3.92;1.60;;;;;;;25.82;70.66;100724.46;2059392;86;31230;-67
2022/07/12 06:41:49;;;;;;;6.95;1.77;;;;;;;26.54;68.93;100715.72;2059799;85;34040;-67
2022/07/12 06:44:58;;;;;;;5.47;1.17;;;;;;;27.06;66.75;100720.50;2059889;86;29338;-67
2022/07/12 06:48:05;;;;;;;4.55;1.55;;;;;;;27.47;65.11;100720.45;2059944;86;27806;-67
2022/07/12 06:51:09;;;;;;;3.47;1.67;;;;;;;27.76;63.87;100710.69;2059863;86;28965;-67
2022/07/12 06:54:21;;;;;;;5.65;1.70;;;;;;;28.27;61.99;100706.64;2025702;87;31091;-66
2022/07/12 06:57:29;;;;;;;1.70;1.40;;;;;;;28.57;60.77;100713.14;2059109;86;32889;-71
2022/07/12 07:00:36;;;;;;;3.83;1.30;;;;;;;28.80;58.25;100714.52;2059202;86;29402;-66
2022/07/12 07:03:43;;;;;;;3.87;1.57;;;;;;;28.88;57.90;100719.10;2058594;86;27914;-69
2022/07/12 07:06:51;;;;;;;2.92;1.52;;;;;;;28.98;56.12;100709.19;2025165;87;30008;-67
2022/07/12 07:09:55;;;;;;;4.45;1.40;;;;;;;29.19;55.97;100715.88;2059455;86;31039;-66
2022/07/12 07:13:06;;;;;;;2.98;1.30;;;;;;;29.44;55.44;100711.47;2059103;86;33043;-67
2022/07/12 07:16:10;;;;;;;3.00;1.32;;;;;;;29.61;53.63;100712.15;2059718;86;29328;-68
2022/07/12 07:19:18;;;;;;;;;;;;;;;29.78;53.11;100708.63;2062350;86;27986;-66
2022/07/12 07:22:24;;;;;;;3.98;1.27;;;;;;;29.93;52.15;100709.99;2069818;85;28726;-68
2022/07/12 07:25:32;;;;;;;3.92;1.30;;;;;;;30.15;51.14;100708.15;2070855;85;31070;-67
2022/07/12 07:30:52;;;;;;;7.05;1.75;;;;;;;30.12;49.62;100709.91;2070211;85;32982;-73
2022/07/12 07:31:44;;;;;;;3.75;1.50;;;;;;;29.74;49.98;100712.82;2065911;85;29492;-66
2022/07/12 07:34:50;;;;;;;3.72;1.50;;;;;;;29.70;48.56;100703.53;2070266;85;27897;-66
2022/07/12 07:38:01;;;;;;;2.98;1.35;;;;;;;29.75;48.63;100703.48;2070479;85;30004;-68
2022/07/12 07:41:09;;;;;;;6.67;1.80;;;;;;;30.01;48.83;100704.38;2070383;85;28055;-68
2022/07/12 07:44:14;;;;;;;5.30;1.87;;;;;;;30.23;48.21;100696.95;2070182;85;32968;-67
2022/07/12 07:47:20;;;;;;;1.77;1.20;;;;;;;30.46;47.61;100702.28;2069810;85;29331;-68
2022/07/12 07:50:27;;;;;;;3.50;1.20;;;;;;;30.57;46.45;100700.09;2070521;85;28026;-68
2022/07/12 07:53:32;;;;;;;2.08;1.05;;;;;;;30.69;46.23;100701.25;2070273;85;28717;-65
2022/07/12 07:56:41;;;;;;;4.83;1.27;;;;;;;30.67;45.01;100696.98;2070782;85;31055;-67
2022/07/12 07:59:50;;;;;;;8.85;1.17;;;;;;;30.65;44.52;100698.55;2070364;85;32973;-68
2022/07/12 08:02:55;;;;;;;2.92;1.42;;;;;;;30.58;44.02;100693.51;2070476;85;53487;-65
2022/07/12 08:06:04;;;;;;;2.42;1.05;;;;;;;30.80;44.63;100697.09;2070625;85;27999;-66
2022/07/12 08:09:09;;;;;;;1.05;0.93;;;;;;;31.06;43.37;100694.19;2070789;85;28663;-67
2022/07/12 08:12:14;;;;;;;2.90;0.95;;;;;;;30.95;41.11;100695.59;2070494;85;31021;-66
2022/07/12 08:15:24;;;;;;;1.57;1.27;;;;;;;30.80;42.02;100692.95;2070544;85;32974;-66
2022/07/12 08:18:31;;;;;;;7.67;1.10;;;;;;;30.80;41.63;100690.17;2069761;85;29268;-66
2022/07/12 08:21:37;;;;;;;2.75;1.20;;;;;;;30.91;41.45;100690.16;2061571;85;28033;-66
2022/07/12 08:24:43;;;;;;;5.62;1.10;;;;;;;31.07;40.90;100688.47;2055204;86;28661;-65
2022/07/12 08:27:52;;;;;;;4.12;1.22;;;;;;;31.02;40.86;100696.51;2054945;86;31071;-66
2022/07/12 08:30:58;;;;;;;3.62;0.90;;;;;;;30.59;40.38;100694.68;2054541;86;33682;-65
2022/07/12 08:34:03;;;;;;;1.52;1.10;;;;;;;29.98;39.52;100695.08;2054367;86;29396;-66
2022/07/12 08:37:10;;;;;;;1.37;0.80;;;;;;;29.30;39.81;100693.83;2055516;86;27906;-67
2022/07/12 08:40:21;;;;;;;3.02;0.80;;;;;;;28.68;39.78;100691.17;2055015;86;28574;-68
2022/07/12 08:43:28;;;;;;;4.42;1.27;;;;;;;28.45;40.40;100695.33;2053803;86;31112;-65
2022/07/12 08:46:39;;;;;;;1.32;0.82;;;;;;;28.15;39.51;100699.31;2030761;86;33000;-66
2022/07/12 08:50:11;;;;;;;3.47;0.95;;;;;;;28.02;39.44;100697.14;2053514;86;29619;-68
2022/07/12 08:53:20;;;;;;;5.53;0.70;;;;;;;28.31;40.07;100689.55;2053495;86;28248;-66
2022/07/12 08:56:42;;;;;;;3.77;0.98;;;;;;;28.62;40.08;100683.63;2053923;86;29337;-66
2022/07/12 08:59:57;;;;;;;2.10;0.80;;;;;;;28.87;39.60;100682.91;2054520;86;31080;-66
2022/07/12 09:03:09;;;;;;;5.08;1.00;;;;;;;29.02;39.20;100685.70;2053877;86;34149;-69
2022/07/12 09:06:16;;;;;;;8.78;1.15;;;;;;;28.95;39.38;100694.38;2055302;86;29326;-66
2022/07/12 09:09:33;;;;;;;5.83;0.85;;;;;;;28.76;39.01;100683.38;2055357;86;27857;-66
2022/07/12 09:12:38;;;;;;;2.25;0.98;;;;;;;28.45;39.12;100702.22;2031700;86;28660;-66
2022/07/12 09:15:43;;;;;;;3.35;0.90;;;;;;;28.35;39.30;100690.06;2053718;86;31031;-66
2022/07/12 09:18:53;;;;;;;2.85;0.70;;;;;;;28.37;38.80;100696.25;2054668;86;32970;-68
2022/07/12 09:22:01;;;;;;;4.22;0.90;;;;;;;28.41;38.45;100703.09;2064290;85;29376;-65
2022/07/12 09:25:23;;;;;;;1.62;0.60;;;;;;;28.48;38.25;100688.92;2067741;85;28019;-65
2022/07/12 09:28:30;;;;;;;6.12;0.90;;;;;;;28.59;38.05;100695.89;2073764;85;28724;-64
2022/07/12 09:38:33;;;;;;;0.50;0.50;;;;;;;27.79;37.52;100686.94;1937064;91;29630;-70
2022/07/12 09:41:38;;;;;;;2.02;0.72;;;;;;;27.73;37.25;100678.88;1938527;91;28237;-64
2022/07/12 09:44:48;;;;;;;2.37;0.98;;;;;;;27.66;36.58;100676.50;1937724;91;28738;-65
2022/07/12 09:48:02;;;;;;;2.83;0.65;;;;;;;27.58;38.05;100684.81;1937705;91;31540;-66
2022/07/12 09:51:14;;;;;;;0.95;0.60;;;;;;;27.41;37.54;100688.97;1937380;91;34284;-65
2022/07/12 09:54:23;;;;;;;2.20;0.80;;;;;;;27.26;37.20;100701.22;1918127;91;29345;-65
2022/07/12 09:57:35;;;;;;;0.88;0.70;;;;;;;27.13;37.81;100691.28;1937907;91;28012;-65
2022/07/12 10:00:46;;;;;;;0.70;0.50;;;;;;;27.02;37.33;100685.63;1937594;91;30017;-68
2022/07/12 10:03:59;;;;;;;1.42;0.57;;;;;;;26.84;37.06;100689.44;1937731;91;30915;-66
2022/07/12 10:07:08;;;;;;;4.33;0.70;;;;;;;26.76;37.95;100694.93;1938005;91;33080;-64
2022/07/12 10:10:13;;;;;;;0.93;0.37;;;;;;;26.57;37.15;100688.41;1937529;91;29361;-65
2022/07/12 10:13:23;;;;;;;0.42;0.35;;;;;;;26.41;37.33;100691.49;2073895;85;27998;-64
2022/07/12 10:16:33;;;;;;;1.22;0.70;;;;;;;26.37;37.56;100691.48;2072272;85;28616;-65
2022/07/12 10:19:39;;;;;;;3.60;0.93;;;;;;;26.27;37.17;100693.02;2047098;85;31089;-66
2022/07/12 10:22:45;;;;;;;1.02;0.60;;;;;;;26.02;37.50;100697.58;2069926;85;32992;-65
2022/07/12 10:25:57;;;;;;;6.78;0.70;;;;;;;25.80;38.04;100699.94;2068747;85;29352;-66
2022/07/12 10:29:10;;;;;;;1.02;0.82;;;;;;;25.59;37.83;100701.22;2070429;85;28022;-66
2022/07/12 10:32:28;;;;;;;2.60;1.30;;;;;;;25.38;37.65;100702.98;2041898;85;28650;-66
2022/07/12 10:35:34;;;;;;;2.75;1.40;;;;;;;25.21;38.69;100698.44;2068605;85;31094;-66
2022/07/12 10:38:38;;;;;;;4.30;1.00;;;;;;;25.21;38.96;100695.69;2069563;85;32973;-65
2022/07/12 10:41:45;;;;;;;1.90;0.90;;;;;;;25.17;38.98;100689.16;2069133;85;29371;-65
2022/07/12 10:44:56;;;;;;;1.27;0.70;;;;;;;25.22;39.50;100692.77;2041931;85;28082;-64
2022/07/12 10:48:19;;;;;;;0.75;0.60;;;;;;;25.32;39.66;100699.52;2068568;85;27938;-66
2022/07/12 10:51:25;;;;;;;1.07;0.88;;;;;;;25.52;40.37;100688.33;2069100;85;31073;-66
2022/07/12 10:54:39;;;;;;;1.27;0.78;;;;;;;25.72;39.16;100684.80;2068323;85;29447;-65
2022/07/12 10:57:52;;;;;;;1.15;0.60;;;;;;;25.80;39.17;100682.09;2068793;85;29437;-66
2022/07/12 11:01:05;;;;;;;2.05;0.70;;;;;;;25.76;39.10;100689.78;2068296;85;27919;-65
2022/07/12 11:04:16;;;;;;;0.70;0.68;;;;;;;25.62;38.75;100685.81;2068992;85;29168;-66
2022/07/12 11:07:25;;;;;;;1.15;0.80;;;;;;;25.54;38.90;100689.88;2068786;85;28312;-66
2022/07/12 11:10:30;;;;;;;1.55;0.50;;;;;;;25.46;39.30;100688.48;2068452;85;33301;-67
2022/07/12 11:13:36;;;;;;;3.42;0.70;;;;;;;25.45;39.23;100686.77;2069340;85;29371;-66
2022/07/12 11:16:49;;;;;;;1.67;0.47;;;;;;;25.45;39.68;100678.53;2069501;85;27982;-66
2022/07/12 11:20:09;;;;;;;1.65;0.75;;;;;;;25.57;39.73;100663.48;2069353;85;28644;-66
2022/07/12 11:23:16;;;;;;;0.78;0.50;;;;;;;25.72;39.98;100668.33;2071844;85;32018;-65
2022/07/12 11:26:24;;;;;;;6.42;1.35;;;;;;;25.72;39.27;100671.95;2047517;85;33048;-67
2022/07/12 11:29:32;;;;;;;3.30;0.62;;;;;;;25.62;39.29;100662.98;2048042;85;29533;-67
2022/07/12 11:32:51;;;;;;;2.20;0.70;;;;;;;25.47;39.29;100671.84;2073311;85;27982;-70
2022/07/12 11:36:00;;;;;;;1.37;0.60;;;;;;;25.40;39.42;100675.38;2070168;85;28029;-67
2022/07/12 11:39:05;;;;;;;0.93;0.60;;;;;;;25.38;40.21;100665.08;2075962;85;31533;-65
2022/07/12 11:42:17;;;;;;;0.95;0.88;;;;;;;25.39;39.83;100668.17;2073172;85;32973;-66
2022/07/12 11:45:32;;;;;;;4.08;0.70;;;;;;;25.23;38.22;100667.60;2072805;85;27956;-67
2022/07/12 11:48:38;;;;;;;2.20;0.70;;;;;;;25.17;40.14;100664.97;2073744;85;27889;-67
2022/07/12 11:51:47;;;;;;;3.92;1.10;;;;;;;25.19;39.79;100651.97;2073233;85;28576;-66
2022/07/12 11:54:53;;;;;;;3.50;0.70;;;;;;;25.28;40.27;100651.49;2074806;85;31041;-66
2022/07/12 11:58:09;;;;;;;2.08;0.70;;;;;;;25.40;39.74;100646.05;2050676;85;32959;-71
2022/07/12 12:01:16;;;;;;;1.15;0.80;;;;;;;25.43;39.79;100645.77;2069338;85;29588;-65
2022/07/12 12:04:30;;;;;;;;;;;;;;;25.46;39.72;100650.08;2054162;85;27898;-67
2022/07/12 12:07:40;;;;;;;1.90;0.95;;;;;;;25.39;39.41;100643.48;2073211;85;28700;-66
2022/07/12 12:10:59;;;;;;;0.98;0.60;;;;;;;25.26;39.69;100643.94;2072936;85;31022;-68
2022/07/12 12:14:09;;;;;;;3.45;0.72;;;;;;;25.19;39.44;100636.88;2073322;85;33174;-67
2022/07/12 12:17:17;;;;;;;2.67;0.82;;;;;;;25.15;39.99;100634.98;2072495;85;29563;-67
2022/07/12 12:20:26;;;;;;;2.05;0.60;;;;;;;25.15;39.70;100631.41;2073719;85;27809;-65
2022/07/12 12:23:33;;;;;;;1.02;0.80;;;;;;;25.09;38.82;100634.78;2073496;84;29725;-65
2022/07/12 12:26:39;;;;;;;4.22;0.65;;;;;;;25.02;38.13;100629.10;2073078;85;31067;-66
2022/07/12 12:29:46;;;;;;;0.53;0.50;;;;;;;25.10;38.55;100632.39;2072980;85;33028;-67
2022/07/12 12:33:03;;;;;;;0.82;0.53;;;;;;;25.26;38.30;100631.59;2074472;85;29408;-66
2022/07/12 12:36:26;;;;;;;4.65;0.55;;;;;;;25.38;38.44;100626.19;2073563;85;27967;-66
2022/07/12 12:39:40;;;;;;;1.67;0.70;;;;;;;25.56;38.59;100619.77;2073526;85;29921;-66
2022/07/12 12:42:48;;;;;;;1.05;0.57;;;;;;;25.71;38.07;100618.09;2073244;85;31475;-66
2022/07/12 12:46:02;;;;;;;1.72;0.60;;;;;;;25.74;37.49;100609.50;2073743;85;32967;-67
2022/07/12 12:49:12;;;;;;;0.95;0.50;;;;;;;25.72;37.68;100614.33;2073372;85;30550;-68
2022/07/12 12:52:17;;;;;;;1.17;0.60;;;;;;;25.72;37.50;100605.22;2076871;85;28006;-68
2022/07/12 12:55:26;;;;;;;1.17;0.75;;;;;;;25.81;37.82;100617.07;2073772;85;28728;-66
2022/07/12 12:58:31;;;;;;;1.37;0.55;;;;;;;25.98;37.91;100607.84;2073603;85;31199;-65
2022/07/12 13:01:36;;;;;;;5.40;0.70;;;;;;;26.12;37.37;100605.47;2073116;85;33024;-65
2022/07/12 13:04:45;;;;;;;1.70;0.57;;;;;;;26.19;36.41;100616.13;2048102;85;29628;-66
2022/07/12 13:07:56;;;;;;;2.65;0.40;;;;;;;26.15;36.36;100620.23;2073571;85;28057;-66
2022/07/12 13:11:20;;;;;;;1.82;0.80;;;;;;;26.19;36.81;100604.61;2046749;85;27947;-66
2022/07/12 13:14:33;;;;;;;0.33;0.33;;;;;;;26.36;36.78;100605.98;2073195;85;27947;-67
2022/07/12 13:17:43;;;;;;;1.05;0.53;;;;;;;26.41;36.64;100606.83;2073006;85;29432;-67
2022/07/12 13:20:54;;;;;;;4.75;0.62;;;;;;;26.35;36.62;100602.89;2073815;85;29580;-66
2022/07/12 13:24:03;;;;;;;0.60;0.40;;;;;;;26.30;36.86;100614.40;2073716;85;27971;-66
2022/07/12 13:27:11;;;;;;;0.62;0.60;;;;;;;26.24;36.40;100608.21;2074143;85;28687;-68
2022/07/12 13:30:18;;;;;;;2.45;0.60;;;;;;;26.24;36.36;100611.83;2074087;85;31048;-66
2022/07/12 13:33:25;;;;;;;2.10;0.40;;;;;;;26.28;36.28;100608.75;2073748;85;33029;-68
2022/07/12 13:36:36;;;;;;;0.45;0.45;;;;;;;26.30;36.40;100606.69;2073767;85;29759;-66
2022/07/12 13:43:11;;;;;;;1.00;0.50;;;;;;;26.27;36.16;100605.66;2073658;85;28749;-66
2022/07/12 13:46:19;;;;;;;0.40;0.35;;;;;;;26.29;34.60;100604.44;2074125;85;31033;-66
2022/07/12 13:49:26;;;;;;;0.62;0.55;;;;;;;26.33;34.66;100600.83;2074120;85;33106;-66
2022/07/12 13:52:34;;;;;;;1.47;0.50;;;;;;;26.29;34.10;100614.05;2073958;85;29334;-67
2022/07/12 13:55:42;;;;;;;1.05;0.50;;;;;;;26.26;34.61;100603.41;2074067;85;27966;-66
2022/07/12 13:58:52;;;;;;;1.65;0.60;;;;;;;26.23;35.00;100605.99;2073715;85;28709;-66
2022/07/12 14:02:12;;;;;;;0.60;0.60;;;;;;;26.17;34.73;100598.95;2074151;85;31066;-66
2022/07/12 14:05:28;;;;;;;0.80;0.40;;;;;;;26.09;34.68;100606.12;2072618;85;30071;-67
2022/07/12 14:08:41;;;;;;;1.32;0.53;;;;;;;26.00;34.78;100607.65;2072314;85;27877;-66
2022/07/12 14:11:47;;;;;;;2.70;0.60;;;;;;;25.87;35.29;100607.64;2073903;85;27896;-66
2022/07/12 14:18:19;;;;;;;0.93;0.80;;;;;;;25.77;35.54;100599.56;2073509;85;31022;-66
2022/07/12 14:21:27;;;;;;;2.00;0.60;;;;;;;25.73;35.25;100605.56;2073849;85;32981;-66
2022/07/12 14:24:31;;;;;;;1.02;0.72;;;;;;;25.65;35.44;100598.70;2062473;85;29598;-66
2022/07/12 14:27:36;;;;;;;0.70;0.55;;;;;;;25.58;35.63;100595.74;2058200;86;28042;-67
2022/07/12 14:30:41;;;;;;;1.57;0.60;;;;;;;25.46;35.33;100588.36;2058887;86;28658;-67
2022/07/12 14:33:52;;;;;;;2.50;0.47;;;;;;;25.40;35.71;100588.45;2058266;86;31048;-67
2022/07/12 14:37:01;;;;;;;1.25;0.68;;;;;;;25.43;36.19;100585.95;2057752;86;33412;-66
2022/07/12 14:40:07;;;;;;;1.70;0.72;;;;;;;25.47;35.51;100581.85;2058219;86;29333;-66
2022/07/12 14:43:13;;;;;;;0.72;0.50;;;;;;;25.47;35.61;100581.85;2058241;86;27983;-71
2022/07/12 14:46:24;;;;;;;1.50;0.85;;;;;;;25.39;35.85;100578.54;2024756;87;28650;-68
2022/07/12 14:49:32;;;;;;;3.20;0.60;;;;;;;25.33;35.57;100577.82;2058503;86;31042;-68
2022/07/12 14:52:37;;;;;;;1.70;0.70;;;;;;;25.28;35.37;100575.58;2057814;86;32946;-67
2022/07/12 14:55:43;;;;;;;1.67;0.78;;;;;;;25.20;35.50;100567.84;2018798;86;29311;-68